sensor_id;sensor_type;location;lat;lon;timestamp;temperature;humidity
6480;DHT22;71753;48.772;9.148;2024-03-02T00:01:14;6.51;84.49
6480;DHT22;71753;48.772;9.148;2024-03-02T00:03:43;6.43;84.84
6480;DHT22;71753;48.772;9.148;2024-03-02T00:06:10;6.42;84.74
6480;DHT22;71753;48.772;9.148;2024-03-02T00:08:37;6.45;84.52
6480;DHT22;71753;48.772;9.148;2024-03-02T00:11:04;6.41;84.71
6480;DHT22;71753;48.772;9.148;2024-03-02T00:13:31;6.42;84.58
6480;DHT22;71753;48.772;9.148;2024-03-02T00:15:59;6.38;84.76
6480;DHT22;71753;48.772;9.148;2024-03-02T00:18:27;6.42;84.35
6480;DHT22;71753;48.772;9.148;2024-03-02T00:20:56;6.38;84.67
6480;DHT22;71753;48.772;9.148;2024-03-02T00:23:24;6.35;84.86
6480;DHT22;71753;48.772;9.148;2024-03-02T00:25:53;6.30;84.87
6480;DHT22;71753;48.772;9.148;2024-03-02T00:28:21;6.29;84.81
6480;DHT22;71753;48.772;9.148;2024-03-02T00:30:58;6.28;84.75
6480;DHT22;71753;48.772;9.148;2024-03-02T00:33:27;6.30;84.48
6480;DHT22;71753;48.772;9.148;2024-03-02T00:35:57;6.29;84.39
6480;DHT22;71753;48.772;9.148;2024-03-02T00:38:25;6.23;84.90
6480;DHT22;71753;48.772;9.148;2024-03-02T00:40:52;6.23;84.78
6480;DHT22;71753;48.772;9.148;2024-03-02T00:43:40;6.21;84.70
6480;DHT22;71753;48.772;9.148;2024-03-02T00:46:07;6.23;84.58
6480;DHT22;71753;48.772;9.148;2024-03-02T00:48:34;6.23;84.39
6480;DHT22;71753;48.772;9.148;2024-03-02T00:51:03;6.27;84.22
6480;DHT22;71753;48.772;9.148;2024-03-02T00:53:31;6.25;84.37
6480;DHT22;71753;48.772;9.148;2024-03-02T00:55:58;6.24;84.35
6480;DHT22;71753;48.772;9.148;2024-03-02T00:58:25;6.30;83.94
6480;DHT22;71753;48.772;9.148;2024-03-02T01:00:52;6.35;83.55
6480;DHT22;71753;48.772;9.148;2024-03-02T01:03:18;6.29;83.74
6480;DHT22;71753;48.772;9.148;2024-03-02T01:05:45;6.31;83.59
6480;DHT22;71753;48.772;9.148;2024-03-02T01:08:13;6.27;83.84
6480;DHT22;71753;48.772;9.148;2024-03-02T01:10:40;6.27;83.85
6480;DHT22;71753;48.772;9.148;2024-03-02T01:13:06;6.28;83.52
6480;DHT22;71753;48.772;9.148;2024-03-02T01:15:33;6.27;83.78
6480;DHT22;71753;48.772;9.148;2024-03-02T01:18:00;6.16;84.16
6480;DHT22;71753;48.772;9.148;2024-03-02T01:20:27;6.14;84.23
6480;DHT22;71753;48.772;9.148;2024-03-02T01:22:53;6.16;84.08
6480;DHT22;71753;48.772;9.148;2024-03-02T01:25:22;6.10;84.34
6480;DHT22;71753;48.772;9.148;2024-03-02T01:27:48;6.04;84.82
6480;DHT22;71753;48.772;9.148;2024-03-02T01:30:15;6.04;84.64
6480;DHT22;71753;48.772;9.148;2024-03-02T01:32:42;5.99;84.77
6480;DHT22;71753;48.772;9.148;2024-03-02T01:35:09;5.99;84.74
6480;DHT22;71753;48.772;9.148;2024-03-02T01:37:36;5.94;85.07
6480;DHT22;71753;48.772;9.148;2024-03-02T01:40:03;5.83;85.47
6480;DHT22;71753;48.772;9.148;2024-03-02T01:42:36;5.76;85.87
6480;DHT22;71753;48.772;9.148;2024-03-02T01:45:04;5.77;85.93
6480;DHT22;71753;48.772;9.148;2024-03-02T01:47:31;5.77;85.86
6480;DHT22;71753;48.772;9.148;2024-03-02T01:49:58;5.79;85.73
6480;DHT22;71753;48.772;9.148;2024-03-02T01:52:25;5.75;85.82
6480;DHT22;71753;48.772;9.148;2024-03-02T01:54:51;5.55;86.53
6480;DHT22;71753;48.772;9.148;2024-03-02T01:57:19;5.50;86.90
6480;DHT22;71753;48.772;9.148;2024-03-02T01:59:47;5.43;86.94
6480;DHT22;71753;48.772;9.148;2024-03-02T02:02:14;5.38;87.45
6480;DHT22;71753;48.772;9.148;2024-03-02T02:04:40;5.35;87.56
6480;DHT22;71753;48.772;9.148;2024-03-02T02:07:07;5.34;87.63
6480;DHT22;71753;48.772;9.148;2024-03-02T02:09:34;5.39;87.38
6480;DHT22;71753;48.772;9.148;2024-03-02T02:12:00;5.40;87.28
6480;DHT22;71753;48.772;9.148;2024-03-02T02:14:28;5.41;87.32
6480;DHT22;71753;48.772;9.148;2024-03-02T02:16:56;5.36;87.56
6480;DHT22;71753;48.772;9.148;2024-03-02T02:19:22;5.35;87.61
6480;DHT22;71753;48.772;9.148;2024-03-02T02:21:50;5.35;87.64
6480;DHT22;71753;48.772;9.148;2024-03-02T02:24:17;5.28;87.82
6480;DHT22;71753;48.772;9.148;2024-03-02T02:26:44;5.30;87.86
6480;DHT22;71753;48.772;9.148;2024-03-02T02:29:10;5.26;87.95
6480;DHT22;71753;48.772;9.148;2024-03-02T02:31:37;5.30;87.77
6480;DHT22;71753;48.772;9.148;2024-03-02T02:34:04;5.39;87.67
6480;DHT22;71753;48.772;9.148;2024-03-02T02:36:31;5.52;87.13
6480;DHT22;71753;48.772;9.148;2024-03-02T02:39:00;5.60;86.71
6480;DHT22;71753;48.772;9.148;2024-03-02T02:41:28;5.75;86.35
6480;DHT22;71753;48.772;9.148;2024-03-02T02:43:55;5.77;86.15
6480;DHT22;71753;48.772;9.148;2024-03-02T02:46:22;5.72;86.33
6480;DHT22;71753;48.772;9.148;2024-03-02T02:48:48;5.69;86.39
6480;DHT22;71753;48.772;9.148;2024-03-02T02:51:14;5.59;86.82
6480;DHT22;71753;48.772;9.148;2024-03-02T02:53:42;5.59;86.83
6480;DHT22;71753;48.772;9.148;2024-03-02T02:56:10;5.55;87.08
6480;DHT22;71753;48.772;9.148;2024-03-02T02:58:36;5.50;87.03
6480;DHT22;71753;48.772;9.148;2024-03-02T03:01:03;5.42;87.30
6480;DHT22;71753;48.772;9.148;2024-03-02T03:03:30;5.38;87.77
6480;DHT22;71753;48.772;9.148;2024-03-02T03:05:56;5.38;87.72
6480;DHT22;71753;48.772;9.148;2024-03-02T03:08:23;5.38;87.64
6480;DHT22;71753;48.772;9.148;2024-03-02T03:10:50;5.37;87.53
6480;DHT22;71753;48.772;9.148;2024-03-02T03:13:18;5.19;88.41
6480;DHT22;71753;48.772;9.148;2024-03-02T03:15:45;5.24;88.28
6480;DHT22;71753;48.772;9.148;2024-03-02T03:18:11;5.37;87.76
6480;DHT22;71753;48.772;9.148;2024-03-02T03:20:38;5.31;88.02
6480;DHT22;71753;48.772;9.148;2024-03-02T03:23:04;5.35;87.93
6480;DHT22;71753;48.772;9.148;2024-03-02T03:25:31;5.39;87.58
6480;DHT22;71753;48.772;9.148;2024-03-02T03:27:58;5.34;87.80
6480;DHT22;71753;48.772;9.148;2024-03-02T03:30:26;5.37;87.78
6480;DHT22;71753;48.772;9.148;2024-03-02T03:32:52;5.39;87.79
6480;DHT22;71753;48.772;9.148;2024-03-02T03:35:19;5.37;87.84
6480;DHT22;71753;48.772;9.148;2024-03-02T03:37:46;5.38;87.73
6480;DHT22;71753;48.772;9.148;2024-03-02T03:40:12;5.51;87.15
6480;DHT22;71753;48.772;9.148;2024-03-02T03:42:39;5.40;87.48
6480;DHT22;71753;48.772;9.148;2024-03-02T03:45:07;5.49;87.09
6480;DHT22;71753;48.772;9.148;2024-03-02T03:47:35;5.51;87.16
6480;DHT22;71753;48.772;9.148;2024-03-02T03:50:01;5.49;87.14
6480;DHT22;71753;48.772;9.148;2024-03-02T03:52:32;5.53;87.06
6480;DHT22;71753;48.772;9.148;2024-03-02T03:54:58;5.61;86.69
6480;DHT22;71753;48.772;9.148;2024-03-02T03:57:25;5.55;86.80
6480;DHT22;71753;48.772;9.148;2024-03-02T03:59:52;5.56;86.77
6480;DHT22;71753;48.772;9.148;2024-03-02T04:02:19;5.61;86.54
6480;DHT22;71753;48.772;9.148;2024-03-02T04:04:47;5.64;86.37
6480;DHT22;71753;48.772;9.148;2024-03-02T04:07:14;5.66;86.20
6480;DHT22;71753;48.772;9.148;2024-03-02T04:09:41;5.67;86.12
6480;DHT22;71753;48.772;9.148;2024-03-02T04:12:07;5.66;86.24
6480;DHT22;71753;48.772;9.148;2024-03-02T04:14:34;5.66;86.19
6480;DHT22;71753;48.772;9.148;2024-03-02T04:17:00;5.68;86.15
6480;DHT22;71753;48.772;9.148;2024-03-02T04:19:27;5.79;85.72
6480;DHT22;71753;48.772;9.148;2024-03-02T04:21:55;5.83;85.27
6480;DHT22;71753;48.772;9.148;2024-03-02T04:24:22;5.82;85.34
6480;DHT22;71753;48.772;9.148;2024-03-02T04:26:48;5.77;85.54
6480;DHT22;71753;48.772;9.148;2024-03-02T04:29:15;5.66;85.78
6480;DHT22;71753;48.772;9.148;2024-03-02T04:31:42;5.71;85.93
6480;DHT22;71753;48.772;9.148;2024-03-02T04:34:08;5.80;85.67
6480;DHT22;71753;48.772;9.148;2024-03-02T04:36:36;5.89;85.23
6480;DHT22;71753;48.772;9.148;2024-03-02T04:39:04;5.89;85.16
6480;DHT22;71753;48.772;9.148;2024-03-02T04:41:35;5.86;85.29
6480;DHT22;71753;48.772;9.148;2024-03-02T04:44:01;5.81;85.41
6480;DHT22;71753;48.772;9.148;2024-03-02T04:46:28;5.79;85.58
6480;DHT22;71753;48.772;9.148;2024-03-02T04:48:55;5.70;86.01
6480;DHT22;71753;48.772;9.148;2024-03-02T04:51:22;5.68;86.08
6480;DHT22;71753;48.772;9.148;2024-03-02T04:53:49;5.66;86.26
6480;DHT22;71753;48.772;9.148;2024-03-02T04:56:17;5.51;86.90
6480;DHT22;71753;48.772;9.148;2024-03-02T04:59:05;5.42;87.29
6480;DHT22;71753;48.772;9.148;2024-03-02T05:01:32;5.42;87.21
6480;DHT22;71753;48.772;9.148;2024-03-02T05:03:58;5.45;87.06
6480;DHT22;71753;48.772;9.148;2024-03-02T05:06:25;5.40;87.26
6480;DHT22;71753;48.772;9.148;2024-03-02T05:08:52;5.39;87.29
6480;DHT22;71753;48.772;9.148;2024-03-02T05:11:20;5.32;87.57
6480;DHT22;71753;48.772;9.148;2024-03-02T05:14:13;5.26;87.78
6480;DHT22;71753;48.772;9.148;2024-03-02T05:16:39;5.20;88.04
6480;DHT22;71753;48.772;9.148;2024-03-02T05:19:07;5.19;88.09
6480;DHT22;71753;48.772;9.148;2024-03-02T05:21:33;5.21;87.93
6480;DHT22;71753;48.772;9.148;2024-03-02T05:24:00;5.13;88.23
6480;DHT22;71753;48.772;9.148;2024-03-02T05:26:29;5.19;88.09
6480;DHT22;71753;48.772;9.148;2024-03-02T05:28:55;5.19;88.01
6480;DHT22;71753;48.772;9.148;2024-03-02T05:31:22;5.20;88.18
6480;DHT22;71753;48.772;9.148;2024-03-02T05:33:48;5.18;88.10
6480;DHT22;71753;48.772;9.148;2024-03-02T05:36:15;5.08;88.43
6480;DHT22;71753;48.772;9.148;2024-03-02T05:38:42;5.09;88.52
6480;DHT22;71753;48.772;9.148;2024-03-02T05:41:08;5.07;88.53
6480;DHT22;71753;48.772;9.148;2024-03-02T05:43:36;5.15;88.19
6480;DHT22;71753;48.772;9.148;2024-03-02T05:46:03;5.24;87.96
6480;DHT22;71753;48.772;9.148;2024-03-02T05:48:30;5.32;87.51
6480;DHT22;71753;48.772;9.148;2024-03-02T05:50:56;5.33;87.42
6480;DHT22;71753;48.772;9.148;2024-03-02T05:53:23;5.31;87.43
6480;DHT22;71753;48.772;9.148;2024-03-02T05:55:49;5.26;87.44
6480;DHT22;71753;48.772;9.148;2024-03-02T05:58:19;5.22;87.64
6480;DHT22;71753;48.772;9.148;2024-03-02T06:00:58;5.30;87.24
6480;DHT22;71753;48.772;9.148;2024-03-02T06:03:24;5.33;87.13
6480;DHT22;71753;48.772;9.148;2024-03-02T06:05:51;5.30;87.31
6480;DHT22;71753;48.772;9.148;2024-03-02T06:08:17;5.40;86.74
6480;DHT22;71753;48.772;9.148;2024-03-02T06:10:44;5.48;86.35
6480;DHT22;71753;48.772;9.148;2024-03-02T06:13:11;5.45;86.40
6480;DHT22;71753;48.772;9.148;2024-03-02T06:15:38;5.42;86.42
6480;DHT22;71753;48.772;9.148;2024-03-02T06:18:06;5.40;86.37
6480;DHT22;71753;48.772;9.148;2024-03-02T06:20:33;5.36;86.57
6480;DHT22;71753;48.772;9.148;2024-03-02T06:23:00;5.38;86.37
6480;DHT22;71753;48.772;9.148;2024-03-02T06:25:27;5.43;86.41
6480;DHT22;71753;48.772;9.148;2024-03-02T06:27:53;5.57;85.91
6480;DHT22;71753;48.772;9.148;2024-03-02T06:30:20;5.65;85.68
6480;DHT22;71753;48.772;9.148;2024-03-02T06:32:46;5.70;85.54
6480;DHT22;71753;48.772;9.148;2024-03-02T06:35:15;5.80;85.23
6480;DHT22;71753;48.772;9.148;2024-03-02T06:37:41;5.78;85.35
6480;DHT22;71753;48.772;9.148;2024-03-02T06:40:08;5.72;85.76
6480;DHT22;71753;48.772;9.148;2024-03-02T06:42:35;5.70;85.84
6480;DHT22;71753;48.772;9.148;2024-03-02T06:45:02;5.75;85.63
6480;DHT22;71753;48.772;9.148;2024-03-02T06:47:29;5.75;85.61
6480;DHT22;71753;48.772;9.148;2024-03-02T06:49:56;5.79;84.93
6480;DHT22;71753;48.772;9.148;2024-03-02T06:52:25;5.79;84.61
6480;DHT22;71753;48.772;9.148;2024-03-02T06:54:51;5.78;84.51
6480;DHT22;71753;48.772;9.148;2024-03-02T06:57:18;5.76;84.61
6480;DHT22;71753;48.772;9.148;2024-03-02T06:59:46;5.83;84.58
6480;DHT22;71753;48.772;9.148;2024-03-02T07:02:14;5.82;84.55
6480;DHT22;71753;48.772;9.148;2024-03-02T07:04:40;5.84;84.71
6480;DHT22;71753;48.772;9.148;2024-03-02T07:07:07;5.86;84.00
6480;DHT22;71753;48.772;9.148;2024-03-02T07:09:35;5.95;83.68
6480;DHT22;71753;48.772;9.148;2024-03-02T07:12:02;5.96;83.47
6480;DHT22;71753;48.772;9.148;2024-03-02T07:14:28;6.10;82.86
6480;DHT22;71753;48.772;9.148;2024-03-02T07:17:09;6.24;82.37
6480;DHT22;71753;48.772;9.148;2024-03-02T07:19:37;6.41;81.53
6480;DHT22;71753;48.772;9.148;2024-03-02T07:22:06;6.39;81.74
6480;DHT22;71753;48.772;9.148;2024-03-02T07:24:32;6.49;81.57
6480;DHT22;71753;48.772;9.148;2024-03-02T07:27:00;6.48;81.78
6480;DHT22;71753;48.772;9.148;2024-03-02T07:29:27;6.64;81.13
6480;DHT22;71753;48.772;9.148;2024-03-02T07:31:54;6.75;80.38
6480;DHT22;71753;48.772;9.148;2024-03-02T07:34:20;6.75;80.11
6480;DHT22;71753;48.772;9.148;2024-03-02T07:36:47;6.55;80.74
6480;DHT22;71753;48.772;9.148;2024-03-02T07:39:14;6.36;81.29
6480;DHT22;71753;48.772;9.148;2024-03-02T07:41:41;6.33;81.68
6480;DHT22;71753;48.772;9.148;2024-03-02T07:44:10;6.26;81.23
6480;DHT22;71753;48.772;9.148;2024-03-02T07:46:39;6.34;81.22
6480;DHT22;71753;48.772;9.148;2024-03-02T07:49:06;6.36;81.07
6480;DHT22;71753;48.772;9.148;2024-03-02T07:51:33;6.43;80.62
6480;DHT22;71753;48.772;9.148;2024-03-02T07:54:00;6.37;80.58
6480;DHT22;71753;48.772;9.148;2024-03-02T07:56:26;6.37;80.62
6480;DHT22;71753;48.772;9.148;2024-03-02T07:58:53;6.29;80.79
6480;DHT22;71753;48.772;9.148;2024-03-02T08:01:24;6.37;81.00
6480;DHT22;71753;48.772;9.148;2024-03-02T08:03:50;6.35;80.61
6480;DHT22;71753;48.772;9.148;2024-03-02T08:06:18;6.36;80.66
6480;DHT22;71753;48.772;9.148;2024-03-02T08:08:46;6.41;80.48
6480;DHT22;71753;48.772;9.148;2024-03-02T08:11:13;6.48;80.07
6480;DHT22;71753;48.772;9.148;2024-03-02T08:13:40;6.41;80.13
6480;DHT22;71753;48.772;9.148;2024-03-02T08:16:06;6.41;80.14
6480;DHT22;71753;48.772;9.148;2024-03-02T08:18:36;6.63;79.75
6480;DHT22;71753;48.772;9.148;2024-03-02T08:21:03;6.66;78.97
6480;DHT22;71753;48.772;9.148;2024-03-02T08:23:30;6.85;78.88
6480;DHT22;71753;48.772;9.148;2024-03-02T08:25:57;6.95;78.56
6480;DHT22;71753;48.772;9.148;2024-03-02T08:28:24;7.00;77.84
6480;DHT22;71753;48.772;9.148;2024-03-02T08:30:50;6.93;78.34
6480;DHT22;71753;48.772;9.148;2024-03-02T08:33:17;6.97;78.18
6480;DHT22;71753;48.772;9.148;2024-03-02T08:35:45;7.18;77.67
6480;DHT22;71753;48.772;9.148;2024-03-02T08:38:12;7.44;76.37
6480;DHT22;71753;48.772;9.148;2024-03-02T08:40:39;7.93;75.20
6480;DHT22;71753;48.772;9.148;2024-03-02T08:43:06;8.16;73.73
6480;DHT22;71753;48.772;9.148;2024-03-02T08:45:33;8.08;73.61
6480;DHT22;71753;48.772;9.148;2024-03-02T08:48:01;8.20;74.22
6480;DHT22;71753;48.772;9.148;2024-03-02T08:50:27;8.55;72.26
6480;DHT22;71753;48.772;9.148;2024-03-02T08:52:55;8.70;71.74
6480;DHT22;71753;48.772;9.148;2024-03-02T08:55:22;8.93;70.42
6480;DHT22;71753;48.772;9.148;2024-03-02T08:57:49;8.48;70.80
6480;DHT22;71753;48.772;9.148;2024-03-02T09:00:17;8.50;71.22
6480;DHT22;71753;48.772;9.148;2024-03-02T09:02:44;8.83;69.78
6480;DHT22;71753;48.772;9.148;2024-03-02T09:05:11;8.90;69.94
6480;DHT22;71753;48.772;9.148;2024-03-02T09:07:37;8.93;69.38
6480;DHT22;71753;48.772;9.148;2024-03-02T09:10:07;9.21;68.09
6480;DHT22;71753;48.772;9.148;2024-03-02T09:12:35;9.39;67.60
6480;DHT22;71753;48.772;9.148;2024-03-02T09:15:02;9.54;67.30
6480;DHT22;71753;48.772;9.148;2024-03-02T09:17:29;9.97;65.98
6480;DHT22;71753;48.772;9.148;2024-03-02T09:19:56;9.81;66.23
6480;DHT22;71753;48.772;9.148;2024-03-02T09:22:23;10.22;64.37
6480;DHT22;71753;48.772;9.148;2024-03-02T09:24:49;10.64;63.44
6480;DHT22;71753;48.772;9.148;2024-03-02T09:27:17;10.33;64.42
6480;DHT22;71753;48.772;9.148;2024-03-02T09:29:44;10.69;63.19
6480;DHT22;71753;48.772;9.148;2024-03-02T09:32:13;10.90;62.71
6480;DHT22;71753;48.772;9.148;2024-03-02T09:34:40;10.40;62.48
6480;DHT22;71753;48.772;9.148;2024-03-02T09:37:07;10.65;63.66
6480;DHT22;71753;48.772;9.148;2024-03-02T09:39:33;10.53;61.80
6480;DHT22;71753;48.772;9.148;2024-03-02T09:42:00;10.65;63.20
6480;DHT22;71753;48.772;9.148;2024-03-02T09:44:29;10.62;62.51
6480;DHT22;71753;48.772;9.148;2024-03-02T09:46:56;10.79;62.15
6480;DHT22;71753;48.772;9.148;2024-03-02T09:49:23;10.78;61.54
6480;DHT22;71753;48.772;9.148;2024-03-02T09:51:49;10.85;61.44
6480;DHT22;71753;48.772;9.148;2024-03-02T09:54:16;10.96;60.59
6480;DHT22;71753;48.772;9.148;2024-03-02T09:56:47;11.15;60.69
6480;DHT22;71753;48.772;9.148;2024-03-02T09:59:18;11.83;59.02
6480;DHT22;71753;48.772;9.148;2024-03-02T10:02:02;11.70;57.31
6480;DHT22;71753;48.772;9.148;2024-03-02T10:04:30;11.49;57.59
6480;DHT22;71753;48.772;9.148;2024-03-02T10:07:10;11.67;59.31
6480;DHT22;71753;48.772;9.148;2024-03-02T10:09:38;11.87;56.70
6480;DHT22;71753;48.772;9.148;2024-03-02T10:12:05;12.01;56.31
6480;DHT22;71753;48.772;9.148;2024-03-02T10:14:33;12.25;56.89
6480;DHT22;71753;48.772;9.148;2024-03-02T10:17:03;12.25;56.94
6480;DHT22;71753;48.772;9.148;2024-03-02T10:19:31;12.53;55.96
6480;DHT22;71753;48.772;9.148;2024-03-02T10:21:59;12.23;56.80
6480;DHT22;71753;48.772;9.148;2024-03-02T10:24:26;12.58;55.14
6480;DHT22;71753;48.772;9.148;2024-03-02T10:26:52;12.28;56.36
6480;DHT22;71753;48.772;9.148;2024-03-02T10:29:19;12.22;57.01
6480;DHT22;71753;48.772;9.148;2024-03-02T10:31:46;12.61;56.03
6480;DHT22;71753;48.772;9.148;2024-03-02T10:34:15;12.26;55.32
6480;DHT22;71753;48.772;9.148;2024-03-02T10:36:43;12.06;56.36
6480;DHT22;71753;48.772;9.148;2024-03-02T10:39:12;12.35;55.87
6480;DHT22;71753;48.772;9.148;2024-03-02T10:41:39;13.04;55.70
6480;DHT22;71753;48.772;9.148;2024-03-02T10:44:07;13.37;54.49
6480;DHT22;71753;48.772;9.148;2024-03-02T10:46:37;13.47;52.74
6480;DHT22;71753;48.772;9.148;2024-03-02T10:49:05;13.44;53.96
6480;DHT22;71753;48.772;9.148;2024-03-02T10:51:34;12.61;54.92
6480;DHT22;71753;48.772;9.148;2024-03-02T10:54:03;12.60;55.86
6480;DHT22;71753;48.772;9.148;2024-03-02T10:56:31;12.72;55.81
6480;DHT22;71753;48.772;9.148;2024-03-02T10:59:03;13.03;55.49
6480;DHT22;71753;48.772;9.148;2024-03-02T11:01:31;12.96;55.23
6480;DHT22;71753;48.772;9.148;2024-03-02T11:03:59;13.07;54.44
6480;DHT22;71753;48.772;9.148;2024-03-02T11:06:29;13.29;53.41
6480;DHT22;71753;48.772;9.148;2024-03-02T11:09:04;13.54;54.28
6480;DHT22;71753;48.772;9.148;2024-03-02T11:11:37;13.22;54.26
6480;DHT22;71753;48.772;9.148;2024-03-02T11:14:07;13.31;54.79
6480;DHT22;71753;48.772;9.148;2024-03-02T11:16:38;13.70;53.08
6480;DHT22;71753;48.772;9.148;2024-03-02T11:19:08;13.03;53.33
6480;DHT22;71753;48.772;9.148;2024-03-02T11:21:36;13.05;53.85
6480;DHT22;71753;48.772;9.148;2024-03-02T11:24:32;13.41;51.83
6480;DHT22;71753;48.772;9.148;2024-03-02T11:27:03;13.71;50.43
6480;DHT22;71753;48.772;9.148;2024-03-02T11:29:43;13.41;50.31
6480;DHT22;71753;48.772;9.148;2024-03-02T11:32:13;13.58;50.40
6480;DHT22;71753;48.772;9.148;2024-03-02T11:34:41;13.39;49.90
6480;DHT22;71753;48.772;9.148;2024-03-02T11:37:10;13.68;50.32
6480;DHT22;71753;48.772;9.148;2024-03-02T11:39:39;14.21;49.01
6480;DHT22;71753;48.772;9.148;2024-03-02T11:42:06;14.67;46.96
6480;DHT22;71753;48.772;9.148;2024-03-02T11:44:35;14.95;46.25
6480;DHT22;71753;48.772;9.148;2024-03-02T11:47:05;14.62;46.40
6480;DHT22;71753;48.772;9.148;2024-03-02T11:49:39;14.85;44.42
6480;DHT22;71753;48.772;9.148;2024-03-02T11:52:08;14.04;47.28
6480;DHT22;71753;48.772;9.148;2024-03-02T11:54:37;14.10;47.85
6480;DHT22;71753;48.772;9.148;2024-03-02T11:57:07;13.88;47.96
6480;DHT22;71753;48.772;9.148;2024-03-02T11:59:33;14.33;48.74
6480;DHT22;71753;48.772;9.148;2024-03-02T12:02:02;13.86;47.42
6480;DHT22;71753;48.772;9.148;2024-03-02T12:04:29;14.06;48.24
6480;DHT22;71753;48.772;9.148;2024-03-02T12:06:58;14.51;46.79
6480;DHT22;71753;48.772;9.148;2024-03-02T12:09:26;14.91;46.19
6480;DHT22;71753;48.772;9.148;2024-03-02T12:12:03;14.53;45.94
6480;DHT22;71753;48.772;9.148;2024-03-02T12:14:33;14.80;47.34
6480;DHT22;71753;48.772;9.148;2024-03-02T12:17:00;14.64;46.12
6480;DHT22;71753;48.772;9.148;2024-03-02T12:19:27;14.49;45.99
6480;DHT22;71753;48.772;9.148;2024-03-02T12:21:55;14.78;46.01
6480;DHT22;71753;48.772;9.148;2024-03-02T12:24:22;15.15;45.08
6480;DHT22;71753;48.772;9.148;2024-03-02T12:26:50;14.45;46.93
6480;DHT22;71753;48.772;9.148;2024-03-02T12:29:19;14.39;47.31
6480;DHT22;71753;48.772;9.148;2024-03-02T12:31:47;14.95;45.68
6480;DHT22;71753;48.772;9.148;2024-03-02T12:34:15;14.70;46.52
6480;DHT22;71753;48.772;9.148;2024-03-02T12:36:43;14.55;46.83
6480;DHT22;71753;48.772;9.148;2024-03-02T12:39:13;14.91;46.58
6480;DHT22;71753;48.772;9.148;2024-03-02T12:41:40;15.01;47.12
6480;DHT22;71753;48.772;9.148;2024-03-02T12:44:07;14.45;47.83
6480;DHT22;71753;48.772;9.148;2024-03-02T12:46:34;14.66;47.68
6480;DHT22;71753;48.772;9.148;2024-03-02T12:49:08;14.47;47.15
6480;DHT22;71753;48.772;9.148;2024-03-02T12:51:36;14.73;48.76
6480;DHT22;71753;48.772;9.148;2024-03-02T12:54:03;15.08;46.43
6480;DHT22;71753;48.772;9.148;2024-03-02T12:56:30;14.91;46.57
6480;DHT22;71753;48.772;9.148;2024-03-02T12:58:58;14.66;47.63
6480;DHT22;71753;48.772;9.148;2024-03-02T13:01:25;14.67;47.27
6480;DHT22;71753;48.772;9.148;2024-03-02T13:03:53;15.00;47.31
6480;DHT22;71753;48.772;9.148;2024-03-02T13:06:22;15.39;46.49
6480;DHT22;71753;48.772;9.148;2024-03-02T13:08:50;14.89;46.69
6480;DHT22;71753;48.772;9.148;2024-03-02T13:11:16;14.65;47.70
6480;DHT22;71753;48.772;9.148;2024-03-02T13:13:43;15.14;46.49
6480;DHT22;71753;48.772;9.148;2024-03-02T13:16:10;15.01;46.13
6480;DHT22;71753;48.772;9.148;2024-03-02T13:18:38;14.79;45.71
6480;DHT22;71753;48.772;9.148;2024-03-02T13:21:05;14.79;46.54
6480;DHT22;71753;48.772;9.148;2024-03-02T13:23:33;14.80;46.89
6480;DHT22;71753;48.772;9.148;2024-03-02T13:26:00;14.79;45.71
6480;DHT22;71753;48.772;9.148;2024-03-02T13:28:27;14.64;46.24
6480;DHT22;71753;48.772;9.148;2024-03-02T13:30:54;15.19;47.07
6480;DHT22;71753;48.772;9.148;2024-03-02T13:33:20;15.17;44.92
6480;DHT22;71753;48.772;9.148;2024-03-02T13:35:48;15.02;45.96
6480;DHT22;71753;48.772;9.148;2024-03-02T13:38:16;14.91;45.71
6480;DHT22;71753;48.772;9.148;2024-03-02T13:40:44;15.10;45.66
6480;DHT22;71753;48.772;9.148;2024-03-02T13:43:11;14.98;45.93
6480;DHT22;71753;48.772;9.148;2024-03-02T13:45:38;14.89;45.68
6480;DHT22;71753;48.772;9.148;2024-03-02T13:48:05;14.80;46.07
6480;DHT22;71753;48.772;9.148;2024-03-02T13:50:32;14.80;46.47
6480;DHT22;71753;48.772;9.148;2024-03-02T13:52:59;14.91;46.25
6480;DHT22;71753;48.772;9.148;2024-03-02T13:55:25;15.12;45.03
6480;DHT22;71753;48.772;9.148;2024-03-02T13:57:53;14.85;45.67
6480;DHT22;71753;48.772;9.148;2024-03-02T14:00:20;14.80;45.34
6480;DHT22;71753;48.772;9.148;2024-03-02T14:02:47;14.86;46.07
6480;DHT22;71753;48.772;9.148;2024-03-02T14:05:15;14.70;45.44
6480;DHT22;71753;48.772;9.148;2024-03-02T14:07:42;14.93;46.80
6480;DHT22;71753;48.772;9.148;2024-03-02T14:10:09;15.16;45.39
6480;DHT22;71753;48.772;9.148;2024-03-02T14:12:36;14.99;44.34
6480;DHT22;71753;48.772;9.148;2024-03-02T14:15:05;15.10;44.93
6480;DHT22;71753;48.772;9.148;2024-03-02T14:17:32;14.93;45.05
6480;DHT22;71753;48.772;9.148;2024-03-02T14:19:59;14.79;44.89
6480;DHT22;71753;48.772;9.148;2024-03-02T14:22:26;14.73;44.78
6480;DHT22;71753;48.772;9.148;2024-03-02T14:24:53;14.83;44.86
6480;DHT22;71753;48.772;9.148;2024-03-02T14:27:19;15.11;44.01
6480;DHT22;71753;48.772;9.148;2024-03-02T14:29:46;15.18;43.92
6480;DHT22;71753;48.772;9.148;2024-03-02T14:32:14;15.18;43.87
6480;DHT22;71753;48.772;9.148;2024-03-02T14:34:41;15.13;43.92
6480;DHT22;71753;48.772;9.148;2024-03-02T14:37:07;14.98;44.01
6480;DHT22;71753;48.772;9.148;2024-03-02T14:39:34;14.95;43.98
6480;DHT22;71753;48.772;9.148;2024-03-02T14:42:02;14.73;44.38
6480;DHT22;71753;48.772;9.148;2024-03-02T14:44:28;14.79;44.46
6480;DHT22;71753;48.772;9.148;2024-03-02T14:46:55;14.88;44.51
6480;DHT22;71753;48.772;9.148;2024-03-02T14:49:25;14.92;43.29
6480;DHT22;71753;48.772;9.148;2024-03-02T14:51:52;14.88;42.36
6480;DHT22;71753;48.772;9.148;2024-03-02T14:54:18;14.96;42.05
6480;DHT22;71753;48.772;9.148;2024-03-02T14:56:45;14.89;41.29
6480;DHT22;71753;48.772;9.148;2024-03-02T14:59:12;15.03;41.10
6480;DHT22;71753;48.772;9.148;2024-03-02T15:01:38;15.16;41.22
6480;DHT22;71753;48.772;9.148;2024-03-02T15:04:05;15.34;40.84
6480;DHT22;71753;48.772;9.148;2024-03-02T15:06:33;15.22;40.83
6480;DHT22;71753;48.772;9.148;2024-03-02T15:09:00;15.14;41.05
6480;DHT22;71753;48.772;9.148;2024-03-02T15:11:27;15.22;41.07
6480;DHT22;71753;48.772;9.148;2024-03-02T15:13:55;15.11;40.01
6480;DHT22;71753;48.772;9.148;2024-03-02T15:16:22;15.08;40.78
6480;DHT22;71753;48.772;9.148;2024-03-02T15:18:49;15.14;40.72
6480;DHT22;71753;48.772;9.148;2024-03-02T15:21:16;14.78;40.61
6480;DHT22;71753;48.772;9.148;2024-03-02T15:23:45;14.66;41.55
6480;DHT22;71753;48.772;9.148;2024-03-02T15:26:12;14.60;41.93
6480;DHT22;71753;48.772;9.148;2024-03-02T15:28:39;14.52;41.75
6480;DHT22;71753;48.772;9.148;2024-03-02T15:31:05;14.52;41.73
6480;DHT22;71753;48.772;9.148;2024-03-02T15:33:32;14.42;41.89
6480;DHT22;71753;48.772;9.148;2024-03-02T15:35:59;14.37;42.01
6480;DHT22;71753;48.772;9.148;2024-03-02T15:38:26;14.35;41.72
6480;DHT22;71753;48.772;9.148;2024-03-02T15:40:54;14.32;41.69
6480;DHT22;71753;48.772;9.148;2024-03-02T15:43:21;14.24;41.78
6480;DHT22;71753;48.772;9.148;2024-03-02T15:45:49;14.19;41.84
6480;DHT22;71753;48.772;9.148;2024-03-02T15:48:16;14.14;42.01
6480;DHT22;71753;48.772;9.148;2024-03-02T15:50:42;14.09;41.68
6480;DHT22;71753;48.772;9.148;2024-03-02T15:53:09;13.98;42.22
6480;DHT22;71753;48.772;9.148;2024-03-02T15:55:36;13.95;42.26
6480;DHT22;71753;48.772;9.148;2024-03-02T15:58:04;13.86;42.39